Time;durP1;ratioP1;P1;durP2;ratioP2;P2;SDS_P1;SDS_P2;PMS_P1;PMS_P2;Temp;Humidity;BMP_temperature;BMP_pressure;BME280_temperature;BME280_humidity;BME280_pressure;Samples;Min_cycle;Max_cycle;Signal;HPM_P1;HPM_P2
2022/05/28 00:00:22;;;;;;;2.97;1.65;;;;;;;;;;5116229;27;20436;-54
2022/05/28 00:02:48;;;;;;;2.45;1.98;;;;;;;;;;5121912;27;20158;-54
2022/05/28 00:05:13;;;;;;;2.70;2.47;;;;;;;;;;5111724;27;20044;-53
2022/05/28 00:07:39;;;;;;;2.35;2.10;;;;;;;;;;5115779;27;20043;-54
2022/05/28 00:10:05;;;;;;;4.93;2.58;;;;;;;;;;5109296;27;20725;-54
2022/05/28 00:12:31;;;;;;;3.92;2.65;;;;;;;;;;5120161;27;20146;-52
2022/05/28 00:14:56;;;;;;;9.55;2.05;;;;;;;;;;5111316;27;20090;-53
2022/05/28 00:17:22;;;;;;;8.77;2.28;;;;;;;;;;5114970;27;20066;-53
2022/05/28 00:19:47;;;;;;;8.52;2.30;;;;;;;;;;5122829;27;20043;-54
2022/05/28 00:22:13;;;;;;;3.20;2.17;;;;;;;;;;5119819;27;20504;-53
2022/05/28 00:24:38;;;;;;;3.90;2.45;;;;;;;;;;5112415;27;20095;-54
2022/05/28 00:27:03;;;;;;;7.20;2.15;;;;;;;;;;5107371;27;20036;-52
2022/05/28 00:29:29;;;;;;;3.15;2.05;;;;;;;;;;5111032;27;20453;-53
2022/05/28 00:31:54;;;;;;;4.68;2.00;;;;;;;;;;5122124;27;20047;-54
2022/05/28 00:34:21;;;;;;;2.10;1.55;;;;;;;;;;5118716;27;20059;-54
2022/05/28 00:36:46;;;;;;;2.80;2.30;;;;;;;;;;5107969;27;20100;-52
2022/05/28 00:39:11;;;;;;;3.85;2.92;;;;;;;;;;5116775;27;20051;-54
2022/05/28 00:41:37;;;;;;;5.20;2.53;;;;;;;;;;5120309;27;20539;-54
2022/05/28 00:44:03;;;;;;;2.83;2.13;;;;;;;;;;5120844;27;20074;-52
2022/05/28 00:46:28;;;;;;;7.93;3.00;;;;;;;;;;5108485;27;20046;-54
2022/05/28 00:48:59;;;;;;;3.72;1.83;;;;;;;;;;5109513;27;20043;-54
2022/05/28 00:51:27;;;;;;;5.30;2.17;;;;;;;;;;5108980;27;20099;-50
2022/05/28 00:53:54;;;;;;;3.00;2.05;;;;;;;;;;5121492;27;20055;-54
2022/05/28 00:56:22;;;;;;;1.77;1.48;;;;;;;;;;5120857;27;20043;-54
2022/05/28 00:58:48;;;;;;;9.68;3.10;;;;;;;;;;5108499;27;20047;-53
2022/05/28 01:01:15;;;;;;;10.85;2.75;;;;;;;;;;5119340;27;20047;-53
2022/05/28 01:03:49;;;;;;;4.25;2.40;;;;;;;;;;5115335;27;20082;-54
2022/05/28 01:06:18;;;;;;;2.75;1.90;;;;;;;;;;5119900;27;20056;-54
2022/05/28 01:08:48;;;;;;;8.15;2.28;;;;;;;;;;5119569;27;20078;-52
2022/05/28 01:11:13;;;;;;;11.25;2.53;;;;;;;;;;5119185;27;20050;-54
2022/05/28 01:13:43;;;;;;;3.88;2.25;;;;;;;;;;5123734;27;20043;-54
2022/05/28 01:16:19;;;;;;;4.73;2.30;;;;;;;;;;5121916;27;20073;-53
2022/05/28 01:18:49;;;;;;;5.70;3.35;;;;;;;;;;5113115;27;20043;-54
2022/05/28 01:21:18;;;;;;;14.93;2.90;;;;;;;;;;5114040;27;20036;-50
2022/05/28 01:23:44;;;;;;;3.60;2.08;;;;;;;;;;5108602;27;20043;-54
2022/05/28 01:26:31;;;;;;;5.13;2.65;;;;;;;;;;5119216;27;20048;-54
2022/05/28 01:29:03;;;;;;;4.28;2.20;;;;;;;;;;5094585;27;20052;-54
2022/05/28 01:31:29;;;;;;;2.55;1.67;;;;;;;;;;5115703;27;20039;-54
2022/05/28 01:33:55;;;;;;;2.80;2.05;;;;;;;;;;5116511;27;20073;-53
2022/05/28 01:36:21;;;;;;;6.47;2.67;;;;;;;;;;5101971;27;20050;-54
2022/05/28 01:38:47;;;;;;;10.35;2.42;;;;;;;;;;5117833;27;20039;-49
2022/05/28 01:41:13;;;;;;;2.30;1.85;;;;;;;;;;5120816;27;20126;-51
2022/05/28 01:43:40;;;;;;;3.50;2.15;;;;;;;;;;5122026;27;20035;-49
2022/05/28 01:46:06;;;;;;;4.40;2.10;;;;;;;;;;5120981;27;20043;-54
2022/05/28 01:48:32;;;;;;;6.13;3.65;;;;;;;;;;5123926;27;20496;-52
2022/05/28 01:51:00;;;;;;;6.65;2.33;;;;;;;;;;5115382;27;20039;-53
2022/05/28 01:56:11;;;;;;;3.15;2.17;;;;;;;;;;5112508;27;20105;-52
2022/05/28 01:58:38;;;;;;;2.75;1.33;;;;;;;;;;5107344;27;20500;-53
2022/05/28 02:01:05;;;;;;;2.70;1.52;;;;;;;;;;5108083;27;20047;-52
2022/05/28 02:03:32;;;;;;;2.40;1.92;;;;;;;;;;5118799;27;20047;-53
2022/05/28 02:05:59;;;;;;;3.15;1.80;;;;;;;;;;5117774;27;20035;-53
2022/05/28 02:08:26;;;;;;;5.30;2.25;;;;;;;;;;5116493;27;20039;-54
2022/05/28 02:11:03;;;;;;;2.88;1.48;;;;;;;;;;5103804;27;20523;-52
2022/05/28 02:13:34;;;;;;;10.63;2.00;;;;;;;;;;5114776;27;20051;-53
2022/05/28 02:16:06;;;;;;;2.38;1.75;;;;;;;;;;5100797;27;20090;-52
2022/05/28 02:18:37;;;;;;;3.25;2.72;;;;;;;;;;5114591;27;20047;-53
2022/05/28 02:21:02;;;;;;;;;;;;;;;;;;5112078;27;20043;-51
2022/05/28 02:23:34;;;;;;;4.00;2.93;;;;;;;;;;5106939;27;19987;-52
2022/05/28 02:25:59;;;;;;;1.65;1.30;;;;;;;;;;5118913;27;20283;-53
2022/05/28 02:28:27;;;;;;;16.42;2.75;;;;;;;;;;5118451;27;20574;-54
2022/05/28 02:30:54;;;;;;;9.65;2.50;;;;;;;;;;5118414;27;20057;-53
2022/05/28 02:33:20;;;;;;;2.83;1.92;;;;;;;;;;5117960;27;20047;-49
2022/05/28 02:35:45;;;;;;;8.13;2.47;;;;;;;;;;5110141;27;20066;-53
2022/05/28 02:38:12;;;;;;;3.90;1.77;;;;;;;;;;5110990;27;20512;-51
2022/05/28 02:40:37;;;;;;;5.20;2.67;;;;;;;;;;5114841;27;20078;-54
2022/05/28 02:43:02;;;;;;;2.55;1.80;;;;;;;;;;5119649;27;20062;-53
2022/05/28 02:45:28;;;;;;;4.00;2.85;;;;;;;;;;5120000;27;20067;-54
2022/05/28 02:47:53;;;;;;;1.85;1.35;;;;;;;;;;5121882;27;20046;-53
2022/05/28 02:50:19;;;;;;;4.45;2.13;;;;;;;;;;5116853;27;20460;-53
2022/05/28 02:52:44;;;;;;;3.42;3.08;;;;;;;;;;5111816;27;20043;-52
2022/05/28 02:55:09;;;;;;;6.80;3.40;;;;;;;;;;5118826;27;20138;-51
2022/05/28 02:57:35;;;;;;;3.05;2.28;;;;;;;;;;5113195;27;20043;-53
2022/05/28 03:00:00;;;;;;;4.10;2.28;;;;;;;;;;5105268;27;20047;-52
2022/05/28 03:02:27;;;;;;;2.30;1.73;;;;;;;;;;5112562;27;20095;-50
2022/05/28 03:04:52;;;;;;;8.00;3.10;;;;;;;;;;5106430;27;20047;-50
2022/05/28 03:07:18;;;;;;;3.47;2.38;;;;;;;;;;5114341;27;20657;-54
2022/05/28 03:09:44;;;;;;;2.17;1.80;;;;;;;;;;5116445;27;20048;-51
2022/05/28 03:12:09;;;;;;;2.40;1.75;;;;;;;;;;5115983;27;20139;-52
2022/05/28 03:14:34;;;;;;;5.80;2.00;;;;;;;;;;5116656;28;20188;-52
2022/05/28 03:17:00;;;;;;;10.82;1.90;;;;;;;;;;5116558;28;20055;-53
2022/05/28 03:19:25;;;;;;;2.10;1.30;;;;;;;;;;5117818;28;20043;-53
2022/05/28 03:21:50;;;;;;;2.55;1.80;;;;;;;;;;5113490;27;20039;-53
2022/05/28 03:24:19;;;;;;;2.55;2.15;;;;;;;;;;5118313;28;20365;-49
2022/05/28 03:26:44;;;;;;;2.88;1.42;;;;;;;;;;5118757;28;20501;-50
2022/05/28 03:29:09;;;;;;;3.35;2.03;;;;;;;;;;5116103;27;20043;-54
2022/05/28 03:31:35;;;;;;;10.77;2.33;;;;;;;;;;5113230;27;20079;-53
2022/05/28 03:34:00;;;;;;;6.55;2.42;;;;;;;;;;5106605;27;20432;-51
2022/05/28 03:36:26;;;;;;;2.22;1.25;;;;;;;;;;5107124;27;20415;-53
2022/05/28 03:38:51;;;;;;;7.00;1.38;;;;;;;;;;5110750;27;20507;-51
2022/05/28 03:41:17;;;;;;;2.63;1.52;;;;;;;;;;5120409;28;20076;-53
2022/05/28 03:43:42;;;;;;;6.80;2.35;;;;;;;;;;5115527;27;20054;-51
2022/05/28 03:46:37;;;;;;;6.25;2.22;;;;;;;;;;5118623;28;20089;-50
2022/05/28 03:49:07;;;;;;;4.00;1.70;;;;;;;;;;5098374;28;20100;-52
2022/05/28 03:51:33;;;;;;;2.45;1.17;;;;;;;;;;5119297;28;20057;-53
2022/05/28 03:53:58;;;;;;;3.03;1.85;;;;;;;;;;5118013;28;20059;-50
2022/05/28 03:56:25;;;;;;;4.30;2.80;;;;;;;;;;5116482;28;20105;-53
2022/05/28 03:58:50;;;;;;;3.92;2.47;;;;;;;;;;5102346;27;20052;-53
2022/05/28 04:01:17;;;;;;;2.78;1.83;;;;;;;;;;5103905;27;20055;-53
2022/05/28 04:03:42;;;;;;;5.20;2.05;;;;;;;;;;5111774;28;20039;-49
2022/05/28 04:06:08;;;;;;;2.72;1.40;;;;;;;;;;5118117;28;20457;-52
2022/05/28 04:08:34;;;;;;;11.45;1.48;;;;;;;;;;5115111;28;20078;-54
2022/05/28 04:10:59;;;;;;;2.05;1.30;;;;;;;;;;5109441;28;20079;-53
2022/05/28 04:13:25;;;;;;;1.90;1.33;;;;;;;;;;5105544;28;20040;-54
2022/05/28 04:15:50;;;;;;;7.00;1.92;;;;;;;;;;5110027;27;20051;-54
2022/05/28 04:18:15;;;;;;;1.55;0.90;;;;;;;;;;5117860;28;20103;-51
2022/05/28 04:20:41;;;;;;;2.42;1.65;;;;;;;;;;5107593;27;20044;-53
2022/05/28 04:23:06;;;;;;;5.28;2.30;;;;;;;;;;5119868;27;20038;-55
2022/05/28 04:25:31;;;;;;;2.10;1.08;;;;;;;;;;5123597;27;20570;-53
2022/05/28 04:27:57;;;;;;;2.22;1.25;;;;;;;;;;5119301;27;20035;-54
2022/05/28 04:30:22;;;;;;;3.83;1.85;;;;;;;;;;5122598;27;20051;-53
2022/05/28 04:32:47;;;;;;;3.22;1.70;;;;;;;;;;5118693;27;20039;-50
2022/05/28 04:35:13;;;;;;;7.82;3.67;;;;;;;;;;5119722;27;20047;-55
2022/05/28 04:37:38;;;;;;;5.88;1.80;;;;;;;;;;5119544;27;20043;-54
2022/05/28 04:40:04;;;;;;;12.65;3.05;;;;;;;;;;5122361;27;20579;-54
2022/05/28 04:42:29;;;;;;;4.88;2.30;;;;;;;;;;5120510;27;20436;-54
2022/05/28 04:44:56;;;;;;;3.90;1.70;;;;;;;;;;5121281;27;20080;-54
2022/05/28 04:47:22;;;;;;;2.50;1.65;;;;;;;;;;5118616;27;20035;-54
2022/05/28 04:49:47;;;;;;;2.25;1.05;;;;;;;;;;5114022;27;20059;-52
2022/05/28 04:52:12;;;;;;;15.68;2.10;;;;;;;;;;5113697;27;20487;-54
2022/05/28 04:54:37;;;;;;;3.78;1.60;;;;;;;;;;5117620;27;20067;-51
2022/05/28 04:57:03;;;;;;;8.20;2.25;;;;;;;;;;5117727;27;20043;-53
2022/05/28 04:59:28;;;;;;;2.15;1.40;;;;;;;;;;5122239;27;20058;-52
2022/05/28 05:01:54;;;;;;;11.55;2.65;;;;;;;;;;5118928;27;20050;-54
2022/05/28 05:04:19;;;;;;;16.80;2.25;;;;;;;;;;5121118;27;20039;-51
2022/05/28 05:06:44;;;;;;;1.40;0.95;;;;;;;;;;5118995;27;20063;-51
2022/05/28 05:09:09;;;;;;;1.98;1.55;;;;;;;;;;5115426;27;20096;-53
2022/05/28 05:11:35;;;;;;;2.92;1.10;;;;;;;;;;5121376;27;20035;-53
2022/05/28 05:14:00;;;;;;;9.93;1.13;;;;;;;;;;5118262;27;20143;-53
2022/05/28 05:16:26;;;;;;;2.22;1.92;;;;;;;;;;5117397;27;20506;-53
2022/05/28 05:18:51;;;;;;;2.70;1.00;;;;;;;;;;5116121;27;20229;-53
2022/05/28 05:21:16;;;;;;;6.40;1.38;;;;;;;;;;5120588;27;20077;-53
2022/05/28 05:23:42;;;;;;;1.85;1.17;;;;;;;;;;5121539;27;20061;-53
2022/05/28 05:26:09;;;;;;;2.33;1.75;;;;;;;;;;5114501;27;20092;-52
2022/05/28 05:28:34;;;;;;;12.07;1.80;;;;;;;;;;5113923;27;20064;-54
2022/05/28 05:31:00;;;;;;;3.17;1.20;;;;;;;;;;5121577;27;20040;-54
2022/05/28 05:33:25;;;;;;;2.90;2.20;;;;;;;;;;5120602;27;20039;-52
2022/05/28 05:35:50;;;;;;;6.22;2.20;;;;;;;;;;5118326;27;20698;-51
2022/05/28 05:38:15;;;;;;;2.35;1.52;;;;;;;;;;5118619;27;20135;-53
2022/05/28 05:40:41;;;;;;;15.60;3.28;;;;;;;;;;5107162;27;20104;-52
2022/05/28 05:43:06;;;;;;;3.92;1.88;;;;;;;;;;5111680;27;20050;-50
2022/05/28 05:45:32;;;;;;;3.60;1.75;;;;;;;;;;5118503;27;20408;-53
2022/05/28 05:47:57;;;;;;;2.15;1.17;;;;;;;;;;5115573;27;20044;-53
2022/05/28 05:50:22;;;;;;;11.57;2.78;;;;;;;;;;5107529;27;20051;-54
2022/05/28 05:52:48;;;;;;;2.55;1.88;;;;;;;;;;5108110;27;20404;-54
2022/05/28 05:55:13;;;;;;;10.20;5.07;;;;;;;;;;5107693;27;20204;-54
2022/05/28 05:57:39;;;;;;;7.72;2.90;;;;;;;;;;5102606;27;20058;-54
2022/05/28 06:00:05;;;;;;;2.58;2.00;;;;;;;;;;5103938;27;20650;-53
2022/05/28 06:02:30;;;;;;;11.60;2.95;;;;;;;;;;5117075;27;20047;-54
2022/05/28 06:04:58;;;;;;;12.32;3.13;;;;;;;;;;5110936;27;20054;-55
2022/05/28 06:07:23;;;;;;;5.50;2.70;;;;;;;;;;5118605;27;20103;-54
2022/05/28 06:09:48;;;;;;;2.50;1.77;;;;;;;;;;5121329;27;20078;-55
2022/05/28 06:12:14;;;;;;;5.32;3.53;;;;;;;;;;5118481;27;20039;-54
2022/05/28 06:14:39;;;;;;;7.97;5.40;;;;;;;;;;5120538;27;20138;-54
2022/05/28 06:17:04;;;;;;;7.07;4.15;;;;;;;;;;5120277;27;20043;-55
2022/05/28 06:19:30;;;;;;;11.82;3.88;;;;;;;;;;5119582;27;20055;-54
2022/05/28 06:21:59;;;;;;;9.90;3.97;;;;;;;;;;5118190;27;20403;-54
2022/05/28 06:24:24;;;;;;;20.98;5.85;;;;;;;;;;5105330;27;20504;-55
2022/05/28 06:26:49;;;;;;;6.75;4.38;;;;;;;;;;5119981;27;20100;-55
2022/05/28 06:29:15;;;;;;;8.68;4.93;;;;;;;;;;5119742;27;20071;-53
2022/05/28 06:31:40;;;;;;;6.90;3.80;;;;;;;;;;5119114;27;20059;-55
2022/05/28 06:34:05;;;;;;;9.25;4.32;;;;;;;;;;5119302;27;20043;-55
2022/05/28 06:36:31;;;;;;;4.90;3.63;;;;;;;;;;5116912;27;20126;-53
2022/05/28 06:38:56;;;;;;;4.43;3.88;;;;;;;;;;5119527;27;20138;-52
2022/05/28 06:41:21;;;;;;;7.80;5.15;;;;;;;;;;5119492;27;20042;-54
2022/05/28 06:43:46;;;;;;;4.82;4.32;;;;;;;;;;5117583;27;20133;-54
2022/05/28 06:46:12;;;;;;;6.30;5.10;;;;;;;;;;5118324;27;20047;-54
2022/05/28 06:48:37;;;;;;;9.20;5.63;;;;;;;;;;5119020;27;20035;-51
2022/05/28 06:51:03;;;;;;;12.73;9.02;;;;;;;;;;5119029;27;20958;-50
2022/05/28 06:53:40;;;;;;;11.65;8.82;;;;;;;;;;5112964;27;20054;-55
2022/05/28 06:56:06;;;;;;;15.82;12.07;;;;;;;;;;5118700;27;20090;-54
2022/05/28 06:58:31;;;;;;;18.75;14.43;;;;;;;;;;5114990;27;20048;-56
2022/05/28 07:00:57;;;;;;;31.48;19.05;;;;;;;;;;5107442;27;20144;-55
2022/05/28 07:03:24;;;;;;;44.05;25.05;;;;;;;;;;5110297;27;20036;-54
2022/05/28 07:05:50;;;;;;;16.33;11.98;;;;;;;;;;5117703;27;20067;-51
2022/05/28 07:08:15;;;;;;;15.23;11.18;;;;;;;;;;5104643;27;20445;-55
2022/05/28 07:10:43;;;;;;;6.82;4.05;;;;;;;;;;5108932;27;20066;-62
2022/05/28 07:13:10;;;;;;;6.70;4.78;;;;;;;;;;5114253;27;20039;-64
2022/05/28 07:15:35;;;;;;;4.72;3.20;;;;;;;;;;5114517;27;20480;-63
2022/05/28 07:18:00;;;;;;;7.93;5.63;;;;;;;;;;5108730;28;20139;-63
2022/05/28 07:20:26;;;;;;;12.93;9.57;;;;;;;;;;5112107;28;20042;-63
2022/05/28 07:22:51;;;;;;;9.80;7.93;;;;;;;;;;5113106;28;20054;-63
2022/05/28 07:25:16;;;;;;;12.70;11.40;;;;;;;;;;5108385;27;20070;-64
2022/05/28 07:27:42;;;;;;;18.20;14.07;;;;;;;;;;5116125;28;20062;-65
2022/05/28 07:30:09;;;;;;;16.77;8.13;;;;;;;;;;5114919;27;20051;-65
2022/05/28 07:32:34;;;;;;;12.77;10.10;;;;;;;;;;5103040;27;20087;-65
2022/05/28 07:34:59;;;;;;;21.13;18.77;;;;;;;;;;5116849;28;20405;-66
2022/05/28 07:37:25;;;;;;;12.15;9.55;;;;;;;;;;5117709;28;20043;-65
2022/05/28 07:39:51;;;;;;;15.30;12.63;;;;;;;;;;5117924;28;20171;-65
2022/05/28 07:42:16;;;;;;;20.35;14.45;;;;;;;;;;5116029;28;20123;-64
2022/05/28 07:44:41;;;;;;;24.88;15.68;;;;;;;;;;5111020;27;20147;-65
2022/05/28 07:47:07;;;;;;;16.98;12.68;;;;;;;;;;5109440;28;20093;-65
2022/05/28 07:49:34;;;;;;;25.05;21.50;;;;;;;;;;5117960;28;20074;-65
2022/05/28 07:52:00;;;;;;;34.35;24.27;;;;;;;;;;5118845;28;20062;-65
2022/05/28 07:54:25;;;;;;;20.90;14.90;;;;;;;;;;5118664;27;20137;-64
2022/05/28 07:56:50;;;;;;;27.02;18.45;;;;;;;;;;5120005;27;20411;-63
2022/05/28 07:59:16;;;;;;;10.15;8.27;;;;;;;;;;5118756;27;20140;-62
2022/05/28 08:01:41;;;;;;;7.65;4.35;;;;;;;;;;5119813;27;20039;-63
2022/05/28 08:04:07;;;;;;;4.72;1.77;;;;;;;;;;5109714;27;20515;-62
2022/05/28 08:06:33;;;;;;;4.55;1.30;;;;;;;;;;5117969;27;20065;-62
2022/05/28 08:08:58;;;;;;;9.73;2.03;;;;;;;;;;5117326;27;20465;-62
2022/05/28 08:11:24;;;;;;;3.17;1.98;;;;;;;;;;5117867;27;20058;-62
2022/05/28 08:13:50;;;;;;;2.20;0.95;;;;;;;;;;5117636;27;20043;-62
2022/05/28 08:16:16;;;;;;;2.40;1.58;;;;;;;;;;5117021;27;20043;-62
2022/05/28 08:18:42;;;;;;;3.10;1.15;;;;;;;;;;5103386;27;20039;-62
2022/05/28 08:23:52;;;;;;;2.58;1.02;;;;;;;;;;5118857;27;20092;-62
2022/05/28 08:26:19;;;;;;;19.35;2.63;;;;;;;;;;5117845;27;20031;-62
2022/05/28 08:28:45;;;;;;;4.38;2.13;;;;;;;;;;5116890;27;20036;-65
2022/05/28 08:31:10;;;;;;;1.90;0.90;;;;;;;;;;5119630;27;20536;-62
2022/05/28 08:33:36;;;;;;;11.48;1.65;;;;;;;;;;5108727;27;20075;-62
2022/05/28 08:36:02;;;;;;;2.13;1.73;;;;;;;;;;5116883;27;20039;-62
2022/05/28 08:38:28;;;;;;;3.63;2.30;;;;;;;;;;5106434;27;20043;-62
2022/05/28 08:40:53;;;;;;;1.50;1.35;;;;;;;;;;5115142;27;20389;-61
2022/05/28 08:43:19;;;;;;;2.25;1.67;;;;;;;;;;5110269;27;20100;-62
2022/05/28 08:45:47;;;;;;;5.90;2.67;;;;;;;;;;5110050;27;20071;-62
2022/05/28 08:48:15;;;;;;;7.75;2.20;;;;;;;;;;5106756;27;20113;-62
2022/05/28 08:50:46;;;;;;;6.32;2.08;;;;;;;;;;5113426;27;20154;-61
2022/05/28 08:53:14;;;;;;;8.13;2.70;;;;;;;;;;5113239;27;20119;-62
2022/05/28 08:55:41;;;;;;;3.58;1.60;;;;;;;;;;5110318;27;20070;-62
2022/05/28 08:58:14;;;;;;;8.02;1.30;;;;;;;;;;5118913;27;20040;-62
2022/05/28 09:00:39;;;;;;;2.40;1.35;;;;;;;;;;5116689;27;20054;-61
2022/05/28 09:03:08;;;;;;;4.40;2.55;;;;;;;;;;5120163;27;20416;-61
2022/05/28 09:05:53;;;;;;;6.57;3.28;;;;;;;;;;5120661;27;20078;-61
2022/05/28 09:08:35;;;;;;;11.25;2.55;;;;;;;;;;5078556;27;20130;-61
2022/05/28 09:11:03;;;;;;;5.53;3.20;;;;;;;;;;5108825;27;20036;-61
2022/05/28 09:13:32;;;;;;;7.90;1.27;;;;;;;;;;5117823;27;20047;-61
2022/05/28 09:15:58;;;;;;;2.17;1.35;;;;;;;;;;5110811;27;20035;-61
2022/05/28 09:18:27;;;;;;;1.90;1.58;;;;;;;;;;5121630;27;20068;-61
2022/05/28 09:20:52;;;;;;;5.90;1.42;;;;;;;;;;5114902;27;20057;-62
2022/05/28 09:23:18;;;;;;;2.60;1.90;;;;;;;;;;5110137;27;20035;-61
2022/05/28 09:25:45;;;;;;;2.28;1.20;;;;;;;;;;5106124;27;20046;-61
2022/05/28 09:28:30;;;;;;;5.50;1.80;;;;;;;;;;5118563;27;20031;-61
2022/05/28 09:31:14;;;;;;;10.43;2.10;;;;;;;;;;5116449;27;20055;-61
2022/05/28 09:33:51;;;;;;;3.63;1.40;;;;;;;;;;5120650;27;20120;-61
2022/05/28 09:36:30;;;;;;;2.63;1.13;;;;;;;;;;5116015;27;20129;-61
2022/05/28 09:39:08;;;;;;;3.90;2.22;;;;;;;;;;5119203;27;20529;-62
2022/05/28 09:41:37;;;;;;;16.33;2.30;;;;;;;;;;5108763;27;20512;-61
2022/05/28 09:44:14;;;;;;;5.80;1.23;;;;;;;;;;5118712;27;20047;-61
2022/05/28 09:46:40;;;;;;;1.42;0.93;;;;;;;;;;5118254;27;20055;-61
2022/05/28 09:49:22;;;;;;;1.50;0.80;;;;;;;;;;5118258;27;20519;-61
2022/05/28 09:51:50;;;;;;;2.80;1.80;;;;;;;;;;5118350;27;20047;-61
2022/05/28 09:54:20;;;;;;;2.78;1.90;;;;;;;;;;5101879;27;20116;-61
2022/05/28 09:56:54;;;;;;;1.83;1.08;;;;;;;;;;5107460;27;20052;-62
2022/05/28 09:59:25;;;;;;;1.90;0.88;;;;;;;;;;5114506;27;20043;-62
2022/05/28 10:01:52;;;;;;;7.82;1.77;;;;;;;;;;5111805;27;20059;-62
2022/05/28 10:04:30;;;;;;;4.00;1.20;;;;;;;;;;5113326;27;20050;-62
2022/05/28 10:06:56;;;;;;;9.27;1.40;;;;;;;;;;5116906;27;20070;-62
2022/05/28 10:09:26;;;;;;;2.72;1.75;;;;;;;;;;5111113;27;20093;-64
2022/05/28 10:11:55;;;;;;;13.23;1.48;;;;;;;;;;5111354;27;20039;-62
2022/05/28 10:14:20;;;;;;;1.20;0.70;;;;;;;;;;5109372;27;20043;-62
2022/05/28 10:16:47;;;;;;;10.73;1.45;;;;;;;;;;5117369;27;20766;-62
2022/05/28 10:19:34;;;;;;;1.83;1.00;;;;;;;;;;5109243;27;20043;-63
2022/05/28 10:22:04;;;;;;;7.47;1.58;;;;;;;;;;5116901;27;20044;-60
2022/05/28 10:24:36;;;;;;;11.48;4.80;;;;;;;;;;5111150;27;20074;-62
2022/05/28 10:27:01;;;;;;;1.92;1.02;;;;;;;;;;5103900;27;20028;-62
2022/05/28 10:29:40;;;;;;;2.13;1.23;;;;;;;;;;5108400;27;20055;-62
2022/05/28 10:32:31;;;;;;;6.20;2.50;;;;;;;;;;5115986;27;20130;-62
2022/05/28 10:35:17;;;;;;;4.78;1.58;;;;;;;;;;5097733;27;20059;-62
2022/05/28 10:37:42;;;;;;;2.17;1.08;;;;;;;;;;5085009;27;20046;-62
2022/05/28 10:40:13;;;;;;;3.67;2.15;;;;;;;;;;5101107;27;20044;-62
2022/05/28 10:42:39;;;;;;;5.55;2.00;;;;;;;;;;5114980;27;20040;-62
2022/05/28 10:45:08;;;;;;;2.78;0.95;;;;;;;;;;5103870;27;20032;-63
2022/05/28 10:47:36;;;;;;;3.15;1.33;;;;;;;;;;5105856;27;20047;-62
2022/05/28 10:50:07;;;;;;;2.25;0.77;;;;;;;;;;5094105;27;20075;-62
2022/05/28 10:52:50;;;;;;;1.52;0.98;;;;;;;;;;5105214;27;20062;-62
2022/05/28 10:55:36;;;;;;;3.70;1.88;;;;;;;;;;5101250;27;20091;-60
2022/05/28 10:58:11;;;;;;;0.68;0.50;;;;;;;;;;5114910;27;20048;-60
2022/05/28 11:00:55;;;;;;;1.38;0.95;;;;;;;;;;5115403;27;20082;-61
2022/05/28 11:03:24;;;;;;;10.70;1.83;;;;;;;;;;5119975;27;20124;-60
2022/05/28 11:06:02;;;;;;;2.03;0.90;;;;;;;;;;5117125;27;20129;-59
2022/05/28 11:08:34;;;;;;;1.48;0.88;;;;;;;;;;5107390;27;20109;-59
2022/05/28 11:11:18;;;;;;;3.38;1.48;;;;;;;;;;5107605;27;20050;-58
2022/05/28 11:14:12;;;;;;;1.48;1.02;;;;;;;;;;5111860;27;20048;-59
2022/05/28 11:16:56;;;;;;;6.50;2.17;;;;;;;;;;5095416;28;20051;-59
2022/05/28 11:19:32;;;;;;;2.95;1.60;;;;;;;;;;5116559;28;20444;-59
2022/05/28 11:22:06;;;;;;;5.03;1.65;;;;;;;;;;5115764;28;20032;-56
2022/05/28 11:24:53;;;;;;;2.85;1.85;;;;;;;;;;5114737;28;20132;-56
2022/05/28 11:27:37;;;;;;;10.13;1.58;;;;;;;;;;5114797;28;20158;-55
2022/05/28 11:30:11;;;;;;;5.13;1.48;;;;;;;;;;5117752;27;20050;-57
2022/05/28 11:32:42;;;;;;;2.88;1.38;;;;;;;;;;5123947;27;20097;-57
2022/05/28 11:35:16;;;;;;;2.22;1.38;;;;;;;;;;5118173;27;20121;-57
2022/05/28 11:37:44;;;;;;;2.20;1.23;;;;;;;;;;5119843;27;20058;-56
2022/05/28 11:40:18;;;;;;;13.48;2.05;;;;;;;;;;5121563;27;20252;-55
2022/05/28 11:43:01;;;;;;;2.80;1.23;;;;;;;;;;5117503;27;20117;-56
2022/05/28 11:46:05;;;;;;;2.85;1.90;;;;;;;;;;5112198;27;20126;-56
2022/05/28 11:51:29;;;;;;;3.58;1.17;;;;;;;;;;5060351;28;20056;-56
2022/05/28 11:54:01;;;;;;;3.65;1.38;;;;;;;;;;5095449;27;20071;-57
2022/05/28 11:56:28;;;;;;;6.97;1.92;;;;;;;;;;5118894;27;20047;-58
2022/05/28 11:59:02;;;;;;;3.05;1.92;;;;;;;;;;5116079;27;20190;-58
2022/05/28 12:01:29;;;;;;;7.00;2.55;;;;;;;;;;5122719;27;20073;-58
2022/05/28 12:03:55;;;;;;;1.58;0.93;;;;;;;;;;5116082;27;20051;-57
2022/05/28 12:06:34;;;;;;;1.42;0.90;;;;;;;;;;5111657;27;20047;-57
2022/05/28 12:09:09;;;;;;;13.32;2.15;;;;;;;;;;5115673;27;20754;-57
2022/05/28 12:11:34;;;;;;;1.20;0.88;;;;;;;;;;5114904;27;20419;-57
2022/05/28 12:14:02;;;;;;;1.88;1.10;;;;;;;;;;5112047;27;20043;-57
2022/05/28 12:16:38;;;;;;;2.53;1.33;;;;;;;;;;5110249;27;20068;-57
2022/05/28 12:19:16;;;;;;;1.27;0.60;;;;;;;;;;5105044;27;20032;-57
2022/05/28 12:21:43;;;;;;;7.25;0.75;;;;;;;;;;5117176;27;20140;-57
2022/05/28 12:24:24;;;;;;;3.08;1.48;;;;;;;;;;5116813;27;20123;-57
2022/05/28 12:29:33;;;;;;;4.97;1.75;;;;;;;;;;5116496;27;19934;-58
2022/05/28 12:32:17;;;;;;;1.95;0.90;;;;;;;;;;5112163;27;20097;-57
2022/05/28 12:34:56;;;;;;;2.75;1.60;;;;;;;;;;5112000;27;20097;-57
2022/05/28 12:37:24;;;;;;;5.57;1.80;;;;;;;;;;5120934;27;20071;-58
2022/05/28 12:40:05;;;;;;;2.72;1.02;;;;;;;;;;5113160;27;20119;-57
2022/05/28 12:42:31;;;;;;;4.30;2.30;;;;;;;;;;5116750;27;20035;-58
2022/05/28 12:44:57;;;;;;;6.43;2.53;;;;;;;;;;5116343;27;20404;-57
2022/05/28 12:47:31;;;;;;;6.00;1.42;;;;;;;;;;5119410;27;20042;-58
2022/05/28 12:49:59;;;;;;;1.65;1.00;;;;;;;;;;5109690;27;20075;-58
2022/05/28 12:52:43;;;;;;;19.25;1.58;;;;;;;;;;5118104;27;20055;-59
2022/05/28 12:55:18;;;;;;;8.98;1.73;;;;;;;;;;5116323;27;20039;-60
2022/05/28 12:57:43;;;;;;;7.82;3.67;;;;;;;;;;5108016;27;20039;-60
2022/05/28 13:00:14;;;;;;;4.82;2.45;;;;;;;;;;5111921;27;20486;-59
2022/05/28 13:02:41;;;;;;;9.00;2.08;;;;;;;;;;5113130;27;20098;-59
2022/05/28 13:05:16;;;;;;;7.32;3.45;;;;;;;;;;5120760;27;20930;-59
2022/05/28 13:07:53;;;;;;;3.78;1.30;;;;;;;;;;5119269;27;20140;-59
2022/05/28 13:10:18;;;;;;;4.05;0.70;;;;;;;;;;5117740;27;21086;-59
2022/05/28 13:12:46;;;;;;;2.88;1.10;;;;;;;;;;5119727;27;20039;-59
2022/05/28 13:15:11;;;;;;;2.45;1.65;;;;;;;;;;5116552;27;20134;-59
2022/05/28 13:18:00;;;;;;;4.03;2.30;;;;;;;;;;5115572;27;20114;-59
2022/05/28 13:20:29;;;;;;;0.77;0.50;;;;;;;;;;5083208;27;20055;-59
2022/05/28 13:22:54;;;;;;;3.00;1.65;;;;;;;;;;5119634;27;20562;-59
2022/05/28 13:25:20;;;;;;;2.53;1.77;;;;;;;;;;5116699;27;20043;-59
2022/05/28 13:28:12;;;;;;;2.33;1.23;;;;;;;;;;5120012;27;20135;-58
2022/05/28 13:30:41;;;;;;;3.75;1.77;;;;;;;;;;5104917;27;20067;-58
2022/05/28 13:33:14;;;;;;;3.05;1.58;;;;;;;;;;5106833;27;20055;-58
2022/05/28 13:35:42;;;;;;;3.28;1.30;;;;;;;;;;5112811;27;20526;-58
2022/05/28 13:38:08;;;;;;;2.90;1.20;;;;;;;;;;5117283;27;20423;-57
2022/05/28 13:40:36;;;;;;;2.25;1.15;;;;;;;;;;5118041;27;20043;-57
2022/05/28 13:43:04;;;;;;;4.22;2.05;;;;;;;;;;5110994;27;20047;-58
2022/05/28 13:45:31;;;;;;;7.13;1.55;;;;;;;;;;5108721;27;20039;-59
2022/05/28 13:48:02;;;;;;;1.65;0.65;;;;;;;;;;5120874;27;20070;-56
2022/05/28 13:50:27;;;;;;;;;;;;;;;;;;5116546;27;20503;-56
2022/05/28 13:52:53;;;;;;;3.10;1.37;;;;;;;;;;5119498;27;19918;-57
2022/05/28 13:55:24;;;;;;;2.83;1.55;;;;;;;;;;5120711;27;20222;-58
2022/05/28 13:57:49;;;;;;;1.70;0.57;;;;;;;;;;5114964;27;20137;-57
2022/05/28 14:00:25;;;;;;;3.08;1.10;;;;;;;;;;5115172;27;20036;-55
2022/05/28 14:02:56;;;;;;;2.80;1.85;;;;;;;;;;5113906;27;20035;-56
2022/05/28 14:05:41;;;;;;;5.30;1.65;;;;;;;;;;5120665;27;20503;-52
2022/05/28 14:08:14;;;;;;;1.90;1.02;;;;;;;;;;5118462;27;20028;-52
2022/05/28 14:10:40;;;;;;;4.85;1.38;;;;;;;;;;5120973;27;20491;-56
2022/05/28 14:13:05;;;;;;;1.98;1.08;;;;;;;;;;5118782;27;20103;-50
2022/05/28 14:15:31;;;;;;;4.13;1.65;;;;;;;;;;5109741;27;20067;-51
2022/05/28 14:17:57;;;;;;;1.33;0.80;;;;;;;;;;5117183;27;20039;-54
2022/05/28 14:20:30;;;;;;;6.45;1.90;;;;;;;;;;5118922;27;20928;-57
2022/05/28 14:22:57;;;;;;;4.75;2.20;;;;;;;;;;5122668;27;20096;-57
2022/05/28 14:25:26;;;;;;;3.45;1.30;;;;;;;;;;5120426;27;20031;-54
2022/05/28 14:27:53;;;;;;;3.30;2.50;;;;;;;;;;5119162;27;20116;-51
2022/05/28 14:30:18;;;;;;;3.00;1.08;;;;;;;;;;5115343;27;20046;-54
2022/05/28 14:32:45;;;;;;;1.67;0.90;;;;;;;;;;5116738;27;20614;-53
2022/05/28 14:35:12;;;;;;;2.35;1.50;;;;;;;;;;5103851;27;20036;-49
2022/05/28 14:37:37;;;;;;;4.32;0.80;;;;;;;;;;5108592;27;20125;-53
2022/05/28 14:40:04;;;;;;;3.47;1.60;;;;;;;;;;5115095;27;20603;-53
2022/05/28 14:42:32;;;;;;;2.60;1.30;;;;;;;;;;5118719;27;20048;-50
2022/05/28 14:45:01;;;;;;;6.22;1.00;;;;;;;;;;5113494;27;20051;-51
2022/05/28 14:47:30;;;;;;;3.80;1.88;;;;;;;;;;5108644;27;20051;-54
2022/05/28 14:49:57;;;;;;;7.22;1.90;;;;;;;;;;5118047;27;20192;-52
2022/05/28 14:52:24;;;;;;;4.25;1.92;;;;;;;;;;5111110;27;20046;-52
2022/05/28 14:54:54;;;;;;;10.65;3.00;;;;;;;;;;5117793;27;20095;-53
2022/05/28 14:57:39;;;;;;;7.97;2.10;;;;;;;;;;5118939;27;20056;-50
2022/05/28 15:00:07;;;;;;;2.53;1.80;;;;;;;;;;5120039;27;20046;-50